createdAt,value
2019-03-12T00:01:47.798Z,22.57
2019-03-12T00:04:19.509Z,18.27
2019-03-12T00:06:51.112Z,30.47
2019-03-12T00:09:22.729Z,29.50
2019-03-12T00:11:54.407Z,33.23
2019-03-12T00:14:26.098Z,32.40
2019-03-12T00:16:57.787Z,43.30
2019-03-12T00:19:29.497Z,25.13
2019-03-12T00:22:01.095Z,48.20
2019-03-12T00:24:32.720Z,16.93
2019-03-12T00:27:04.408Z,18.13
2019-03-12T00:29:36.112Z,16.83
2019-03-12T00:32:07.711Z,15.00
2019-03-12T00:34:39.508Z,20.43
2019-03-12T00:37:11.175Z,29.87
2019-03-12T00:39:42.789Z,18.23
2019-03-12T00:42:14.373Z,20.27
2019-03-12T00:44:46.186Z,22.07
2019-03-12T00:47:18.098Z,20.60
2019-03-12T00:49:49.734Z,22.07
2019-03-12T00:52:21.344Z,22.23
2019-03-12T00:54:52.966Z,23.90
2019-03-12T00:57:24.633Z,22.73
2019-03-12T00:59:56.642Z,22.93
2019-03-12T01:02:28.288Z,24.87
2019-03-12T01:04:59.959Z,24.03
2019-03-12T01:07:31.565Z,24.93
2019-03-12T01:10:04.262Z,24.47
2019-03-12T01:12:35.925Z,23.57
2019-03-12T01:15:07.794Z,26.70
2019-03-12T01:17:40.464Z,22.67
2019-03-12T01:20:12.582Z,29.30
2019-03-12T01:22:44.184Z,19.97
2019-03-12T01:25:15.807Z,22.20
2019-03-12T01:27:47.651Z,24.03
2019-03-12T01:30:19.333Z,28.50
2019-03-12T01:32:51.248Z,24.10
2019-03-12T01:35:22.847Z,20.43
2019-03-12T01:37:54.494Z,23.40
2019-03-12T01:40:26.198Z,25.27
2019-03-12T01:42:57.787Z,16.23
2019-03-12T01:45:29.373Z,16.23
2019-03-12T01:48:00.995Z,20.50
2019-03-12T01:50:32.617Z,16.23
2019-03-12T01:53:04.227Z,22.80
2019-03-12T01:55:35.907Z,17.77
2019-03-12T01:58:07.568Z,22.00
2019-03-12T02:00:39.345Z,17.63
2019-03-12T02:03:12.005Z,15.10
2019-03-12T02:05:43.684Z,22.53
2019-03-12T02:08:15.309Z,17.97
2019-03-12T02:10:47.170Z,13.33
2019-03-12T02:13:19.020Z,16.43
2019-03-12T02:15:51.068Z,14.43
2019-03-12T02:18:22.932Z,17.93
2019-03-12T02:20:54.615Z,17.77
2019-03-12T02:23:28.848Z,14.83
2019-03-12T02:25:59.638Z,15.70
2019-03-12T02:28:31.504Z,15.60
2019-03-12T02:31:03.252Z,13.07
2019-03-12T02:33:34.950Z,14.03
2019-03-12T02:36:06.619Z,13.53
2019-03-12T02:38:38.286Z,13.27
2019-03-12T02:41:09.893Z,15.03
2019-03-12T02:43:41.494Z,11.53
2019-03-12T02:46:14.082Z,13.00
2019-03-12T02:48:45.754Z,13.93
2019-03-12T02:51:17.410Z,19.80
2019-03-12T02:53:49.022Z,19.30
2019-03-12T02:56:20.813Z,16.13
2019-03-12T02:58:52.415Z,17.60
2019-03-12T03:01:24.096Z,16.13
2019-03-12T03:03:55.778Z,17.80
2019-03-12T03:06:46.373Z,16.30
2019-03-12T03:09:18.180Z,13.30
2019-03-12T03:11:50.981Z,18.20
2019-03-12T03:14:42.302Z,15.40
2019-03-12T03:17:16.229Z,15.17
2019-03-12T03:19:48.131Z,12.93
2019-03-12T03:22:19.735Z,14.93
2019-03-12T03:24:51.324Z,18.53
2019-03-12T03:27:22.936Z,18.83
2019-03-12T03:29:54.652Z,12.60
2019-03-12T03:32:26.288Z,15.93
2019-03-12T03:34:57.910Z,18.23
2019-03-12T03:37:29.667Z,17.47
2019-03-12T03:40:01.327Z,17.07
2019-03-12T03:42:33.222Z,17.80
2019-03-12T03:45:05.048Z,22.70
2019-03-12T03:47:36.690Z,15.97
2019-03-12T03:50:08.713Z,20.53
2019-03-12T03:52:40.431Z,15.77
2019-03-12T03:55:13.829Z,19.23
2019-03-12T03:57:45.569Z,17.83
2019-03-12T04:00:19.074Z,19.93
2019-03-12T04:02:50.977Z,21.30
2019-03-12T04:05:22.698Z,14.77
2019-03-12T04:07:54.536Z,15.93
2019-03-12T04:10:26.192Z,15.93
2019-03-12T04:12:57.791Z,17.83
2019-03-12T04:15:29.369Z,17.83
2019-03-12T04:18:01.053Z,19.17
2019-03-12T04:20:32.735Z,15.40
2019-03-12T04:23:04.445Z,18.00
2019-03-12T04:25:36.110Z,19.27
2019-03-12T04:28:07.770Z,19.17
2019-03-12T04:30:39.363Z,19.60
2019-03-12T04:33:41.423Z,19.40
2019-03-12T04:36:13.033Z,22.67
2019-03-12T04:38:44.672Z,24.67
2019-03-12T04:41:16.341Z,23.10
2019-03-12T04:43:48.118Z,22.97
2019-03-12T04:46:19.765Z,21.77
2019-03-12T04:48:51.498Z,17.63
2019-03-12T04:51:23.088Z,29.20
2019-03-12T04:53:54.705Z,31.87
2019-03-12T04:56:26.389Z,17.37
2019-03-12T04:58:57.976Z,18.13
2019-03-12T05:01:29.575Z,13.37
2019-03-12T05:04:01.261Z,17.20
2019-03-12T05:06:32.922Z,15.83
2019-03-12T05:09:05.764Z,15.43
2019-03-12T05:11:38.167Z,15.17
2019-03-12T05:14:42.022Z,16.63
2019-03-12T05:17:30.873Z,15.80
2019-03-12T05:20:02.546Z,11.13
2019-03-12T05:22:34.219Z,15.17
2019-03-12T05:25:06.261Z,15.47
2019-03-12T05:27:37.936Z,20.17
2019-03-12T05:30:12.153Z,20.67
2019-03-12T05:32:43.833Z,24.23
2019-03-12T05:35:15.441Z,20.13
2019-03-12T05:37:47.205Z,16.63
2019-03-12T05:40:19.048Z,19.77
2019-03-12T05:42:50.837Z,17.27
2019-03-12T05:45:22.427Z,19.83
2019-03-12T05:47:54.020Z,20.40
2019-03-12T05:50:25.762Z,33.33
2019-03-12T05:53:10.301Z,24.00
2019-03-12T05:55:41.885Z,14.93
2019-03-12T05:58:13.469Z,27.07
2019-03-12T06:00:45.073Z,17.10
2019-03-12T06:03:16.917Z,15.87
2019-03-12T06:05:48.512Z,14.77
2019-03-12T06:08:20.170Z,37.00
2019-03-12T06:10:52.027Z,42.77
2019-03-12T06:13:23.920Z,43.13
2019-03-12T06:15:55.749Z,17.87
2019-03-12T06:18:27.420Z,23.37
2019-03-12T06:20:59.050Z,20.83
2019-03-12T06:23:30.651Z,16.50
2019-03-12T06:26:02.283Z,15.70
2019-03-12T06:28:34.147Z,23.53
2019-03-12T06:31:23.038Z,33.07
2019-03-12T06:33:58.813Z,19.73
2019-03-12T06:36:35.075Z,31.17
2019-03-12T06:39:16.029Z,22.63
2019-03-12T06:42:12.584Z,17.53
2019-03-12T06:45:03.310Z,25.47
2019-03-12T06:47:41.759Z,25.17
2019-03-12T06:50:32.267Z,27.63
2019-03-12T06:53:22.789Z,44.23
2019-03-12T06:56:16.025Z,13.40
2019-03-12T06:59:04.921Z,21.27
2019-03-12T07:02:13.355Z,17.83
2019-03-12T07:05:03.966Z,15.63
2019-03-12T07:07:57.363Z,13.73
2019-03-12T07:10:37.762Z,19.30
2019-03-12T07:13:24.920Z,12.63
2019-03-12T07:16:09.736Z,14.13
2019-03-12T07:19:03.031Z,14.33
2019-03-12T07:21:48.499Z,13.00
2019-03-12T07:24:44.833Z,16.17
2019-03-12T07:27:26.721Z,37.87
2019-03-12T07:30:17.241Z,35.07
2019-03-12T07:33:16.874Z,27.47
2019-03-12T07:36:16.951Z,35.47
2019-03-12T07:39:10.631Z,18.70
2019-03-12T07:41:59.069Z,19.57
2019-03-12T07:44:51.276Z,20.23
2019-03-12T07:47:35.786Z,32.33
2019-03-12T07:50:21.507Z,12.67
2019-03-12T07:53:07.810Z,14.40
2019-03-12T07:55:58.426Z,14.63
2019-03-12T07:58:55.198Z,18.27
2019-03-12T08:01:45.927Z,18.67
2019-03-12T08:04:49.564Z,23.27
2019-03-12T08:07:28.292Z,22.33
2019-03-12T08:10:25.151Z,13.27
2019-03-12T08:13:17.431Z,13.47
2019-03-12T08:16:14.716Z,18.37
2019-03-12T08:19:05.678Z,21.63
2019-03-12T08:21:58.117Z,17.80
2019-03-12T08:24:48.874Z,22.47
2019-03-12T08:27:43.259Z,18.97
2019-03-12T08:30:32.433Z,22.57
2019-03-12T08:33:50.406Z,20.43
2019-03-12T08:36:40.052Z,19.50
2019-03-12T08:39:30.717Z,26.07
2019-03-12T08:42:18.480Z,29.03
2019-03-12T08:45:15.721Z,22.77
2019-03-12T08:48:04.047Z,20.77
2019-03-12T08:50:54.254Z,33.57
2019-03-12T08:53:44.858Z,22.23
2019-03-12T08:56:35.460Z,29.93
2019-03-12T08:59:26.652Z,24.00
2019-03-12T09:02:23.508Z,25.17
2019-03-12T09:05:29.269Z,19.30
2019-03-12T09:08:18.626Z,21.77
2019-03-12T09:11:09.287Z,17.67
2019-03-12T09:14:00.092Z,36.87
2019-03-12T09:16:56.774Z,26.30
2019-03-12T09:19:35.983Z,37.93
2019-03-12T09:22:32.635Z,41.60
2019-03-12T09:25:23.771Z,33.07
2019-03-12T09:28:15.778Z,87.93
2019-03-12T09:31:05.213Z,22.33
2019-03-12T09:33:51.705Z,27.87
2019-03-12T09:36:41.141Z,38.43
2019-03-12T09:39:25.946Z,29.93
2019-03-12T09:42:22.603Z,28.60
2019-03-12T09:45:19.489Z,41.50
2019-03-12T09:48:00.864Z,61.37
2019-03-12T09:50:54.306Z,32.83
2019-03-12T09:53:45.184Z,45.40
2019-03-12T09:56:34.742Z,41.87
2019-03-12T09:59:24.230Z,21.90
2019-03-12T10:02:09.010Z,27.00
2019-03-12T10:04:54.303Z,74.43
2019-03-12T10:07:40.150Z,59.87
2019-03-12T10:10:31.204Z,47.03
2019-03-12T10:13:14.741Z,45.47
2019-03-12T10:16:05.641Z,43.03
2019-03-12T10:18:56.250Z,30.90
2019-03-12T10:21:44.143Z,52.80
2019-03-12T10:24:36.259Z,20.03
2019-03-12T10:27:32.929Z,59.53
2019-03-12T10:30:20.398Z,35.77
2019-03-12T10:33:22.847Z,71.50
2019-03-12T10:36:02.735Z,31.50
2019-03-12T10:39:19.270Z,43.90
2019-03-12T10:42:02.968Z,20.83
2019-03-12T10:45:02.726Z,40.63
2019-03-12T10:47:35.541Z,25.67
2019-03-12T10:50:07.412Z,15.73
2019-03-12T10:52:39.507Z,20.17
2019-03-12T10:55:13.423Z,22.17
2019-03-12T10:57:46.233Z,18.10
2019-03-12T11:00:19.342Z,17.30
2019-03-12T11:02:51.284Z,23.47
2019-03-12T11:05:22.984Z,29.03
2019-03-12T11:07:54.654Z,26.37
2019-03-12T11:10:26.329Z,60.50
2019-03-12T11:12:58.001Z,47.03
2019-03-12T11:15:29.789Z,32.60
2019-03-12T11:18:01.449Z,19.97
2019-03-12T11:20:33.115Z,20.17
2019-03-12T11:23:04.786Z,96.43
2019-03-12T11:25:36.467Z,13.13
2019-03-12T11:28:08.137Z,34.53
2019-03-12T11:30:39.831Z,61.50
2019-03-12T11:33:11.558Z,45.03
2019-03-12T11:35:43.164Z,18.60
2019-03-12T11:38:14.821Z,24.50
2019-03-12T11:40:46.542Z,14.03
2019-03-12T11:43:18.270Z,12.97
2019-03-12T11:45:50.213Z,16.40
2019-03-12T11:48:22.264Z,16.27
2019-03-12T11:50:54.059Z,18.40
2019-03-12T11:53:26.819Z,9.87
2019-03-12T11:55:58.577Z,15.77
2019-03-12T11:58:30.267Z,18.57
2019-03-12T12:01:04.379Z,12.37
2019-03-12T12:03:36.243Z,15.27
2019-03-12T12:06:07.846Z,12.07
2019-03-12T12:08:39.549Z,14.20
2019-03-12T12:11:11.201Z,12.93
2019-03-12T12:13:42.987Z,11.50
2019-03-12T12:16:14.719Z,12.07
2019-03-12T12:18:46.426Z,10.57
2019-03-12T12:21:18.253Z,8.93
2019-03-12T12:23:50.201Z,17.10
2019-03-12T12:26:22.099Z,10.73
2019-03-12T12:28:53.972Z,13.47
2019-03-12T12:31:25.580Z,11.00
2019-03-12T12:33:57.260Z,21.70
2019-03-12T12:36:28.836Z,13.00
2019-03-12T12:39:00.489Z,16.03
2019-03-12T12:41:33.694Z,12.93
2019-03-12T12:44:05.363Z,15.57
2019-03-12T12:46:37.142Z,11.97
2019-03-12T12:49:08.818Z,10.20
2019-03-12T12:51:40.422Z,13.23
2019-03-12T12:54:12.088Z,17.90
2019-03-12T12:56:43.769Z,29.30
2019-03-12T12:59:15.366Z,16.07
2019-03-12T13:01:47.271Z,10.40
2019-03-12T13:04:19.142Z,14.03
2019-03-12T13:06:52.113Z,39.87
2019-03-12T13:09:24.033Z,11.00
2019-03-12T13:11:55.694Z,8.87
2019-03-12T13:14:27.363Z,10.03
2019-03-12T13:17:00.042Z,13.00
2019-03-12T13:19:31.821Z,13.17
2019-03-12T13:22:03.488Z,11.50
2019-03-12T13:24:35.176Z,11.53
2019-03-12T13:27:06.761Z,11.63
2019-03-12T13:29:38.514Z,7.23
2019-03-12T13:32:13.771Z,9.60
2019-03-12T13:34:43.608Z,14.70
2019-03-12T13:37:15.200Z,13.87
2019-03-12T13:39:46.879Z,5.73
2019-03-12T13:42:18.539Z,11.17
2019-03-12T13:44:50.380Z,13.57
2019-03-12T13:47:22.110Z,12.60
2019-03-12T13:49:54.062Z,83.53
2019-03-12T13:52:25.716Z,11.10
2019-03-12T13:54:58.442Z,11.80
2019-03-12T13:57:30.092Z,10.70
2019-03-12T14:00:01.938Z,34.63
2019-03-12T14:02:35.137Z,13.77
2019-03-12T14:05:07.080Z,10.83
2019-03-12T14:07:38.942Z,7.83
2019-03-12T14:10:12.481Z,6.80
2019-03-12T14:12:44.237Z,8.03
2019-03-12T14:15:19.172Z,6.10
2019-03-12T14:17:51.074Z,16.43
2019-03-12T14:20:42.906Z,14.60
2019-03-12T14:23:16.913Z,6.60
2019-03-12T14:25:49.143Z,9.27
2019-03-12T14:28:21.106Z,6.10
2019-03-12T14:30:52.771Z,9.37
2019-03-12T14:33:24.438Z,11.23
2019-03-12T14:35:56.108Z,13.00
2019-03-12T14:38:27.779Z,5.20
2019-03-12T14:40:59.447Z,8.67
2019-03-12T14:43:31.111Z,9.77
2019-03-12T14:46:02.757Z,13.07
2019-03-12T14:48:47.785Z,9.83
2019-03-12T14:51:58.253Z,33.97
2019-03-12T14:54:29.963Z,65.97
2019-03-12T14:57:18.030Z,55.30
2019-03-12T14:59:49.641Z,22.87
2019-03-12T15:02:21.745Z,8.07
2019-03-12T15:04:53.419Z,13.10
2019-03-12T15:07:25.096Z,15.20
2019-03-12T15:09:56.850Z,13.70
2019-03-12T15:12:28.513Z,11.77
2019-03-12T15:15:00.351Z,10.20
2019-03-12T15:17:32.057Z,14.03
2019-03-12T15:20:03.719Z,15.63
2019-03-12T15:22:35.391Z,9.63
2019-03-12T15:25:07.401Z,16.37
2019-03-12T15:27:39.083Z,13.87
2019-03-12T15:30:16.313Z,40.80
2019-03-12T15:32:48.006Z,27.80
2019-03-12T15:35:19.729Z,29.57
2019-03-12T15:37:51.322Z,58.30
2019-03-12T15:40:22.999Z,292.13
2019-03-12T15:42:54.790Z,881.40
2019-03-12T15:45:26.442Z,22.43
2019-03-12T15:47:58.072Z,137.43
2019-03-12T15:50:29.687Z,269.53
2019-03-12T15:53:01.381Z,137.20
2019-03-12T15:55:33.018Z,95.97
2019-03-12T15:58:04.717Z,57.10
2019-03-12T16:00:36.316Z,68.03
2019-03-12T16:03:08.028Z,43.90
2019-03-12T16:05:39.682Z,107.97
2019-03-12T16:08:11.382Z,45.07
2019-03-12T16:10:42.980Z,58.77
2019-03-12T16:13:14.682Z,104.63
2019-03-12T16:15:46.369Z,61.70
2019-03-12T16:18:18.474Z,75.60
2019-03-12T16:20:50.363Z,75.10
2019-03-12T16:23:22.285Z,43.70
2019-03-12T16:25:54.138Z,79.10
2019-03-12T16:28:26.837Z,192.87
2019-03-12T16:30:58.440Z,63.13
2019-03-12T16:33:30.117Z,62.50
2019-03-12T16:36:02.793Z,253.13
2019-03-12T16:38:34.431Z,416.80
2019-03-12T16:41:06.305Z,291.17
2019-03-12T16:43:38.011Z,305.20
2019-03-12T16:46:09.636Z,192.43
2019-03-12T16:48:41.248Z,121.17
2019-03-12T16:51:12.882Z,237.30
2019-03-12T16:53:44.505Z,109.17
2019-03-12T16:56:16.129Z,90.70
2019-03-12T16:58:48.057Z,97.10
2019-03-12T17:01:19.746Z,157.40
2019-03-12T17:03:51.421Z,213.27
2019-03-12T17:06:23.019Z,164.87
2019-03-12T17:08:54.640Z,327.27
2019-03-12T17:11:26.327Z,143.47
2019-03-12T17:13:58.033Z,206.50
2019-03-12T17:16:29.720Z,157.43
2019-03-12T17:19:01.331Z,133.43
2019-03-12T17:21:33.113Z,100.63
2019-03-12T17:24:04.801Z,97.17
2019-03-12T17:26:36.475Z,82.27
2019-03-12T17:29:08.105Z,112.67
2019-03-12T17:31:39.787Z,173.90
2019-03-12T17:34:11.402Z,276.53
2019-03-12T17:36:43.092Z,335.40
2019-03-12T17:39:14.718Z,345.47
2019-03-12T17:41:46.399Z,198.73
2019-03-12T17:44:18.297Z,111.60
2019-03-12T17:46:51.237Z,80.23
2019-03-12T17:49:22.919Z,69.70
2019-03-12T17:51:54.812Z,86.73
2019-03-12T17:54:26.881Z,85.60
2019-03-12T17:56:59.026Z,151.73
2019-03-12T17:59:31.007Z,98.23
2019-03-12T18:02:03.116Z,62.63
2019-03-12T18:04:35.176Z,68.97
2019-03-12T18:07:07.326Z,39.07
2019-03-12T18:09:41.147Z,53.97
2019-03-12T18:12:13.100Z,67.63
2019-03-12T18:14:44.909Z,101.63
2019-03-12T18:17:21.154Z,92.13
2019-03-12T18:19:51.772Z,66.73
2019-03-12T18:22:23.877Z,72.10
2019-03-12T18:24:56.003Z,74.53
2019-03-12T18:27:28.702Z,137.53
2019-03-12T18:30:00.758Z,113.87
2019-03-12T18:32:34.314Z,122.03
2019-03-12T18:35:06.421Z,221.17
2019-03-12T18:37:38.212Z,80.47
2019-03-12T18:40:17.453Z,54.93
2019-03-12T18:42:49.564Z,65.13
2019-03-12T18:45:22.458Z,78.07
2019-03-12T18:47:54.280Z,112.33
2019-03-12T18:50:26.135Z,83.10
2019-03-12T18:52:57.971Z,74.43
2019-03-12T18:56:01.914Z,67.67
2019-03-12T18:58:34.595Z,88.73
2019-03-12T19:01:11.583Z,48.67
2019-03-12T19:03:43.652Z,54.07
2019-03-12T19:06:16.714Z,86.00
2019-03-12T19:08:48.882Z,154.53
2019-03-12T19:11:20.947Z,73.77
2019-03-12T19:13:53.110Z,73.70
2019-03-12T19:16:25.033Z,98.67
2019-03-12T19:18:56.863Z,46.27
2019-03-12T19:21:30.222Z,39.53
2019-03-12T19:24:03.297Z,42.07
2019-03-12T19:26:35.658Z,37.10
2019-03-12T19:29:07.699Z,45.00
2019-03-12T19:31:47.098Z,43.97
2019-03-12T19:34:24.919Z,44.20
2019-03-12T19:37:19.346Z,50.60
2019-03-12T19:39:56.302Z,59.77
2019-03-12T19:42:27.955Z,40.67
2019-03-12T19:45:14.557Z,52.73
2019-03-12T19:47:47.043Z,59.37
2019-03-12T19:50:20.485Z,50.17
2019-03-12T19:52:52.915Z,59.87
2019-03-12T19:55:28.053Z,39.47
2019-03-12T19:58:02.598Z,64.97
2019-03-12T20:00:34.755Z,61.97
2019-03-12T20:03:13.401Z,42.90
2019-03-12T20:05:42.074Z,32.87
2019-03-12T20:08:14.022Z,32.10
2019-03-12T20:11:18.750Z,39.73
2019-03-12T20:14:16.622Z,44.17
2019-03-12T20:17:31.886Z,55.77
2019-03-12T20:20:58.382Z,38.07
2019-03-12T20:24:11.671Z,46.33
2019-03-12T20:27:20.140Z,35.30
2019-03-12T20:30:28.833Z,28.70
2019-03-12T20:33:51.685Z,30.47
2019-03-12T20:37:03.142Z,23.70
2019-03-12T20:40:23.708Z,28.50
2019-03-12T20:43:35.216Z,25.63
2019-03-12T20:47:01.791Z,25.93
2019-03-12T20:50:02.358Z,22.87
2019-03-12T20:53:16.608Z,19.60
2019-03-12T20:56:23.341Z,25.50
2019-03-12T20:59:51.050Z,23.67
2019-03-12T21:03:29.671Z,25.97
2019-03-12T21:06:31.823Z,26.00
2019-03-12T21:09:52.412Z,21.50
2019-03-12T21:13:07.912Z,18.90
2019-03-12T21:16:13.626Z,16.40
2019-03-12T21:19:21.129Z,21.27
2019-03-12T21:22:28.656Z,26.07
2019-03-12T21:25:35.419Z,23.87
2019-03-12T21:28:49.787Z,29.13
2019-03-12T21:31:21.466Z,22.10
2019-03-12T21:33:53.153Z,19.70
2019-03-12T21:36:24.771Z,18.97
2019-03-12T21:38:56.401Z,20.00
2019-03-12T21:41:28.081Z,18.63
2019-03-12T21:43:59.719Z,19.20
2019-03-12T21:46:31.312Z,17.50
2019-03-12T21:49:03.010Z,17.63
2019-03-12T21:51:34.605Z,20.10
2019-03-12T21:54:06.302Z,25.90
2019-03-12T21:56:37.963Z,20.77
2019-03-12T21:59:09.577Z,21.53
2019-03-12T22:01:41.256Z,19.93
2019-03-12T22:04:12.939Z,17.30
2019-03-12T22:06:44.602Z,32.30
2019-03-12T22:09:17.556Z,32.67
2019-03-12T22:11:49.406Z,19.67
2019-03-12T22:14:21.295Z,24.97
2019-03-12T22:16:56.091Z,26.77
2019-03-12T22:19:28.891Z,22.27
2019-03-12T22:22:09.013Z,21.10
2019-03-12T22:24:40.759Z,26.73
2019-03-12T22:27:12.435Z,28.70
2019-03-12T22:29:44.049Z,17.40
2019-03-12T22:32:15.640Z,24.03
2019-03-12T22:34:47.569Z,22.03
2019-03-12T22:37:19.400Z,20.40
2019-03-12T22:39:51.327Z,20.87
2019-03-12T22:42:22.949Z,33.47
2019-03-12T22:44:54.536Z,20.60
2019-03-12T22:47:26.112Z,21.87
2019-03-12T22:49:57.705Z,20.33
2019-03-12T22:52:29.358Z,22.90
2019-03-12T22:55:03.835Z,18.63
2019-03-12T22:57:34.405Z,18.63
2019-03-12T23:00:23.909Z,14.50
2019-03-12T23:03:13.318Z,15.47
2019-03-12T23:06:02.934Z,15.47
2019-03-12T23:08:52.467Z,17.30
2019-03-12T23:11:25.816Z,17.57
2019-03-12T23:13:58.232Z,16.40
2019-03-12T23:16:30.685Z,19.27
2019-03-12T23:19:02.412Z,19.40
2019-03-12T23:21:34.441Z,15.53
2019-03-12T23:24:06.168Z,15.90
2019-03-12T23:26:39.093Z,14.27
2019-03-12T23:29:10.918Z,16.10
2019-03-12T23:31:43.663Z,19.73
2019-03-12T23:34:15.387Z,18.07
2019-03-12T23:36:47.128Z,20.93
2019-03-12T23:39:18.854Z,20.07
2019-03-12T23:41:50.614Z,20.23
2019-03-12T23:44:22.432Z,23.10
2019-03-12T23:46:54.269Z,19.93
2019-03-12T23:49:25.993Z,23.70
2019-03-12T23:51:57.915Z,21.63
2019-03-12T23:54:30.171Z,19.53
2019-03-12T23:57:01.930Z,23.87
2019-03-12T23:59:33.660Z,22.70
